Airfield :
LOGIN :

Register | Disclaimer

   EN    FR    IT 

 










Legend :    VFR   Marginal VFR   IFR   Intensive IFR   Very Intensive IFR
Visi :
Ceiling :
>= 8 km
>= 3000ft
5 to 8 km
1000 to 3000 ft
1500m to 5 km
500 to 1000 ft
800 to 1500m
200 to 500 ft
< 800m
< 200 ft
Symbols :   Thunderstorms  Fog  Heavy snow  Heavy precipitations  Wind > 20 kt
SIGMETs :     Misc.  Thunderstorms  Icing  Turbulence  Mountain Waves  Volcanic Ashes






- Airport Elevation : 16 ft
- IATA code : SDR


LEXJ - Santander Cantabria

CURRENT METAR :
  • 021330Z 08008KT 040V120 CAVOK 12/03 Q1033

EXPIRED METARs :
  • 021300Z 10011KT 070V140 9999 FEW036 12/03 Q1033
  • 021230Z 10010KT 030V150 9999 FEW036 12/03 Q1033
  • 021200Z 10011KT 070V140 9999 FEW036 11/03 Q1034
  • 021130Z 12013KT 090V150 9999 FEW036 11/03 Q1034
  • 021100Z 11010KT 070V150 9999 FEW036 11/04 Q1034
  • 021030Z 12010KT 080V150 9999 FEW036 11/04 Q1034

TAF TAF LEXJ
Valid from the 02 at 09:00 until the 03 at 09:00 UTC


020800Z 0209/0309 20005KT 9999 FEW020 SCT035 TX12/0215Z TN03/0307Z
TEMPO 0209/0309 09012KT



MET'MAP, your aeronautical weather chart ! - Copyright ORBIFLY December 2007 - Disclaimer

ORBIFLY MET'MAP TEAM :

Programming & Development : Alexandra Zaïnal
Original concept : Baudouin d'Aumeries
Technical & hardware support : Manuel Goepfert
Assistance : Marc-Olivier Méhu




SOURCES & CREDITS :

   NOAA